Terminal Aerodrome Forecast
Issued by NWS Mt. Holly, NJ

Home | Current Version | Previous Version | Text Only | Print | Product List | Glossary On
Versions: 1 2 3 4 5 6 7 8 9 10 11 12 13 14 15 16 17 18 19 20 21 22 23 24 25 26 27 28 29 30 31 32 33 34
000
FTUS41 KPHI 011502 AAC
TAFPHL
TAF AMD
KPHL 011502Z 0115/0218 12006KT 5SM -RA BR SCT007 OVC015
      TEMPO 0115/0116 BKN007 OVC015
     FM011600 12008KT 2SM -RA BR OVC007
     FM020000 08008KT 2SM -DZ BR OVC006
     FM021000 05008KT 2SM -DZ BR OVC006=

USA.gov is the U.S. government's official web portal to all federal, state and local government web resources and services.